Time;durP1;ratioP1;P1;durP2;ratioP2;P2;SDS_P1;SDS_P2;PMS_P1;PMS_P2;Temp;Humidity;BMP_temperature;BMP_pressure;BME280_temperature;BME280_humidity;BME280_pressure;Samples;Min_cycle;Max_cycle;Signal;HPM_P1;HPM_P2
2024/03/28 00:01:52;;;;;;;13.90;2.10;;;;;;;;;;5012175;28;20045;-72
2024/03/28 00:04:56;;;;;;;10.48;2.15;;;;;;;;;;5012773;28;20425;-71
2024/03/28 00:08:00;;;;;;;14.40;1.70;;;;;;;;;;5012892;28;20068;-72
2024/03/28 00:11:06;;;;;;;12.30;1.88;;;;;;;;;;5012787;28;20044;-71
2024/03/28 00:14:10;;;;;;;6.35;1.60;;;;;;;;;;5000154;28;20053;-71
2024/03/28 00:17:14;;;;;;;15.90;1.83;;;;;;;;;;5012513;28;20363;-71
2024/03/28 00:20:18;;;;;;;7.05;1.63;;;;;;;;;;5012508;28;20501;-71
2024/03/28 00:23:23;;;;;;;13.57;2.17;;;;;;;;;;5012328;28;20046;-71
2024/03/28 00:26:27;;;;;;;12.48;1.70;;;;;;;;;;5012241;28;20362;-71
2024/03/28 00:29:32;;;;;;;9.27;2.50;;;;;;;;;;5000393;28;20048;-71
2024/03/28 00:32:36;;;;;;;9.85;1.83;;;;;;;;;;5012391;28;20049;-71
2024/03/28 00:35:48;;;;;;;7.80;1.80;;;13.80;99.90;;;;;;5012076;28;20490;-71
2024/03/28 00:38:52;;;;;;;11.77;1.92;;;;;;;;;;5012267;28;20127;-72
2024/03/28 00:41:56;;;;;;;11.45;1.88;;;;;;;;;;5012380;28;20053;-71
2024/03/28 00:45:03;;;;;;;11.88;1.98;;;;;;;;;;5011941;28;20056;-71
2024/03/28 00:48:09;;;;;;;19.88;2.45;;;13.70;99.90;;;;;;5011992;28;20049;-72
2024/03/28 00:51:13;;;;;;;9.95;2.22;;;;;;;;;;5011724;28;20041;-71
2024/03/28 00:54:18;;;;;;;17.98;2.08;;;;;;;;;;5011935;28;20042;-71
2024/03/28 00:57:22;;;;;;;15.48;1.90;;;;;;;;;;5012087;28;20049;-71
2024/03/28 01:00:26;;;;;;;12.60;2.58;;;;;;;;;;5011989;28;20049;-71
2024/03/28 01:03:31;;;;;;;13.45;2.17;;;;;;;;;;5011698;28;20049;-71
2024/03/28 01:06:35;;;;;;;14.63;1.55;;;;;;;;;;5011554;28;20057;-72
2024/03/28 01:09:39;;;;;;;13.30;2.10;;;;;;;;;;5011644;28;20218;-71
2024/03/28 01:12:43;;;;;;;20.30;2.30;;;;;;;;;;5011510;28;20044;-72
2024/03/28 01:15:48;;;;;;;20.77;3.15;;;;;;;;;;5011615;28;20049;-71
2024/03/28 01:18:52;;;;;;;11.40;1.90;;;;;;;;;;5011454;28;20049;-72
2024/03/28 01:21:57;;;;;;;13.95;2.10;;;;;;;;;;5011352;28;20057;-72
2024/03/28 01:25:02;;;;;;;16.58;2.13;;;;;;;;;;5011509;28;20052;-71
2024/03/28 01:28:06;;;;;;;16.17;2.25;;;;;;;;;;5010949;28;20045;-71
2024/03/28 01:31:10;;;;;;;13.40;2.00;;;;;;;;;;5011126;28;20218;-71
2024/03/28 01:34:17;;;;;;;13.07;2.75;;;;;;;;;;5011123;28;20048;-72
2024/03/28 01:37:21;;;;;;;10.80;2.50;;;;;;;;;;4999431;28;20053;-71
2024/03/28 01:40:26;;;;;;;13.30;2.30;;;;;;;;;;5011108;28;20049;-71
2024/03/28 01:43:30;;;;;;;19.60;2.58;;;;;;;;;;5011430;28;20065;-72
2024/03/28 01:46:35;;;;;;;9.57;2.30;;;;;;;;;;5011044;28;20057;-72
2024/03/28 01:49:39;;;;;;;20.20;2.40;;;;;;;;;;5011107;28;20037;-71
2024/03/28 01:52:43;;;;;;;15.50;2.95;;;;;;;;;;5011928;28;20394;-71
2024/03/28 01:55:48;;;;;;;14.70;1.77;;;;;;;;;;5010971;28;20065;-69
2024/03/28 01:58:52;;;;;;;19.92;3.10;;;;;;;;;;4999095;28;20049;-71
2024/03/28 02:01:57;;;;;;;15.48;2.35;;;13.80;99.90;;;;;;5011582;28;20057;-71
2024/03/28 02:05:02;;;;;;;22.48;2.30;;;;;;;;;;5011399;28;20049;-71
2024/03/28 02:08:06;;;;;;;20.45;2.58;;;;;;;;;;5011146;28;20057;-71
2024/03/28 02:11:11;;;;;;;18.67;3.17;;;;;;;;;;5010807;28;20101;-71
2024/03/28 02:14:15;;;;;;;21.77;3.08;;;;;;;;;;5010049;28;20049;-71
2024/03/28 02:17:19;;;;;;;14.27;1.98;;;;;;;;;;5010116;28;20382;-71
2024/03/28 02:20:23;;;;;;;12.18;2.00;;;;;;;;;;5011094;28;20057;-71
2024/03/28 02:23:28;;;;;;;17.48;2.22;;;;;;;;;;5010762;28;20744;-71
2024/03/28 02:26:32;;;;;;;13.68;2.05;;;;;;;;;;5013346;28;20053;-71
2024/03/28 02:29:37;;;;;;;11.75;2.20;;;;;;;;;;5013705;28;20049;-71
2024/03/28 02:32:41;;;;;;;19.02;2.35;;;;;;;;;;5014531;28;20389;-71
2024/03/28 02:35:45;;;;;;;12.13;1.70;;;;;;;;;;5014571;28;20080;-71
2024/03/28 02:38:50;;;;;;;12.43;1.88;;;;;;;;;;5014686;28;20037;-71
2024/03/28 02:41:54;;;;;;;13.93;2.40;;;;;;;;;;5002282;28;20052;-71
2024/03/28 02:44:58;;;;;;;14.90;2.42;;;;;;;;;;5014079;28;20057;-71
2024/03/28 02:48:07;;;;;;;16.27;2.72;;;13.40;99.90;;;;;;5014367;28;20056;-71
2024/03/28 02:51:11;;;;;;;12.35;1.88;;;;;;;;;;5014073;28;20044;-71
2024/03/28 02:54:16;;;;;;;19.23;2.10;;;;;;;;;;5014365;28;20052;-71
2024/03/28 02:57:25;;;;;;;16.23;2.00;;;13.70;99.90;;;;;;5001765;28;20382;-70
2024/03/28 03:00:30;;;;;;;13.88;1.95;;;;;;;;;;5002171;28;20049;-71
2024/03/28 03:03:34;;;;;;;17.00;2.00;;;;;;;;;;5001892;28;20044;-71
2024/03/28 03:06:38;;;;;;;15.73;1.83;;;;;;;;;;5013982;28;20125;-70
2024/03/28 03:09:43;;;;;;;13.27;1.75;;;;;;;;;;5013722;28;20048;-71
2024/03/28 03:12:47;;;;;;;10.65;1.75;;;;;;;;;;5001587;28;20041;-71
2024/03/28 03:15:52;;;;;;;9.00;1.80;;;10.20;99.90;;;;;;5013718;28;20041;-71
2024/03/28 03:18:58;;;;;;;21.10;2.67;;;;;;;;;;5013602;28;20049;-71
2024/03/28 03:22:04;;;;;;;8.90;1.65;;;;;;;;;;5013336;28;20049;-69
2024/03/28 03:25:16;;;;;;;15.20;2.20;;;;;;;;;;5013310;28;20037;-71
2024/03/28 03:35:06;;;;;;;17.25;2.13;;;;;;;;;;5013345;28;20544;-71
2024/03/28 03:38:10;;;;;;;10.98;2.00;;;;;;;;;;5012112;28;20049;-70
2024/03/28 03:41:14;;;;;;;13.80;2.05;;;;;;;;;;5013114;28;20041;-70
2024/03/28 03:44:19;;;;;;;19.40;2.33;;;;;;;;;;5012940;28;20053;-70
2024/03/28 03:47:23;;;;;;;17.23;2.15;;;;;;;;;;5000453;28;20052;-70
2024/03/28 03:50:27;;;;;;;9.35;1.52;;;;;;;;;;5012813;28;20041;-71
2024/03/28 03:53:32;;;;;;;16.90;1.70;;;;;;;;;;5011896;28;20042;-71
2024/03/28 03:56:36;;;;;;;9.63;1.80;;;;;;;;;;5012958;28;20049;-70
2024/03/28 03:59:41;;;;;;;11.70;2.10;;;;;;;;;;5012850;28;20038;-71
2024/03/28 04:02:45;;;;;;;11.57;1.90;;;;;;;;;;5012621;28;20055;-70
2024/03/28 04:05:50;;;;;;;13.07;2.20;;;;;;;;;;5000440;28;20041;-70
2024/03/28 04:08:54;;;;;;;10.63;2.45;;;;;;;;;;5000837;28;20049;-70
2024/03/28 04:11:59;;;;;;;8.55;2.08;;;13.40;99.90;;;;;;5012451;28;20224;-71
2024/03/28 04:15:03;;;;;;;16.58;2.47;;;12.50;99.90;;;;;;5012385;28;20045;-71
2024/03/28 04:18:08;;;;;;;12.60;1.80;;;;;;;;;;5000275;28;20053;-70
2024/03/28 04:21:12;;;;;;;16.63;2.13;;;11.10;99.90;;;;;;5012423;28;20048;-70
2024/03/28 04:24:16;;;;;;;16.95;2.67;;;;;;;;;;5012496;28;20397;-71
2024/03/28 04:27:20;;;;;;;11.55;2.15;;;13.00;99.90;;;;;;5012300;28;20057;-71
2024/03/28 04:30:38;;;;;;;11.60;2.17;;;12.90;99.90;;;;;;5000449;28;20049;-71
2024/03/28 04:33:42;;;;;;;15.38;2.10;;;13.00;99.90;;;;;;5012356;28;20052;-71
2024/03/28 04:36:46;;;;;;;11.93;2.30;;;12.80;99.90;;;;;;5012238;28;20048;-71
2024/03/28 04:39:50;;;;;;;13.05;2.70;;;12.90;99.90;;;;;;5012227;28;20048;-71
2024/03/28 04:42:54;;;;;;;20.40;3.42;;;12.70;99.90;;;;;;5011782;28;20501;-70
2024/03/28 04:45:58;;;;;;;19.20;2.80;;;12.70;99.90;;;;;;5012030;28;20060;-71
2024/03/28 04:49:03;;;;;;;16.70;3.42;;;12.70;99.90;;;;;;5011803;28;20053;-71
2024/03/28 04:52:07;;;;;;;11.85;2.53;;;12.50;99.90;;;;;;5012010;28;20512;-71
2024/03/28 04:55:11;;;;;;;15.32;2.97;;;12.60;99.90;;;;;;5012040;28;20048;-71
2024/03/28 04:58:15;;;;;;;19.10;3.72;;;12.60;99.90;;;;;;5011669;28;20052;-71
2024/03/28 05:01:19;;;;;;;14.23;3.30;;;12.50;99.90;;;;;;5011783;28;20061;-71
2024/03/28 05:04:23;;;;;;;18.70;3.20;;;12.50;99.90;;;;;;4999469;28;20045;-71
2024/03/28 05:07:27;;;;;;;14.18;2.50;;;12.40;99.90;;;;;;5011387;28;20382;-71
2024/03/28 05:10:31;;;;;;;14.95;3.33;;;12.30;99.90;;;;;;4999587;28;20496;-71
2024/03/28 05:13:34;;;;;;;25.50;3.40;;;12.30;99.90;;;;;;5011482;28;20049;-71
2024/03/28 05:16:38;;;;;;;24.95;5.65;;;12.90;99.90;;;;;;4999708;28;20044;-71
2024/03/28 05:19:42;;;;;;;16.33;3.90;;;12.30;99.90;;;;;;4999655;28;20048;-71
2024/03/28 05:22:47;;;;;;;16.73;3.50;;;12.40;99.90;;;;;;5011151;28;20049;-71
2024/03/28 05:25:51;;;;;;;25.30;5.07;;;13.30;99.90;;;;;;5011477;28;20057;-71
2024/03/28 05:28:54;;;;;;;19.83;3.90;;;13.70;99.90;;;;;;4999127;28;20057;-71
2024/03/28 05:31:58;;;;;;;13.63;3.50;;;12.60;99.90;;;;;;5011498;28;20057;-71
2024/03/28 05:35:02;;;;;;;11.75;2.90;;;12.60;99.90;;;;;;5011331;28;20037;-71
2024/03/28 05:38:06;;;;;;;13.30;2.65;;;13.00;99.90;;;;;;5011097;28;20057;-71
2024/03/28 05:41:10;;;;;;;18.70;3.35;;;13.10;99.90;;;;;;5011213;28;20041;-71
2024/03/28 05:44:14;;;;;;;16.08;2.95;;;13.40;99.90;;;;;;5011198;28;20057;-71
2024/03/28 05:47:18;;;;;;;14.65;3.85;;;13.40;99.90;;;;;;5011028;28;20053;-71
2024/03/28 05:50:22;;;;;;;23.15;4.75;;;13.60;99.90;;;;;;5011119;28;20045;-69
2024/03/28 05:53:26;;;;;;;13.15;3.40;;;;;;;;;;5011148;28;20493;-71
2024/03/28 05:56:30;;;;;;;13.10;2.80;;;13.50;99.90;;;;;;4999184;28;20065;-71
2024/03/28 05:59:34;;;;;;;12.95;3.17;;;13.80;99.90;;;;;;5011360;28;20489;-71
2024/03/28 06:02:38;;;;;;;18.20;3.40;;;13.60;99.90;;;;;;5015050;28;20053;-71
2024/03/28 06:05:42;;;;;;;16.00;3.67;;;13.50;99.90;;;;;;5014964;28;20041;-71
2024/03/28 06:08:47;;;;;;;16.25;3.17;;;13.30;99.90;;;;;;5014955;28;20065;-71
2024/03/28 06:11:50;;;;;;;23.77;4.43;;;13.20;99.90;;;;;;5014883;28;20049;-71
2024/03/28 06:14:54;;;;;;;17.45;4.25;;;13.20;99.90;;;;;;5014983;28;20053;-71
2024/03/28 06:17:58;;;;;;;18.10;6.80;;;13.10;99.90;;;;;;5015124;28;20049;-71
2024/03/28 06:21:05;;;;;;;29.58;7.95;;;14.20;99.90;;;;;;5015002;28;20504;-71
2024/03/28 06:24:10;;;;;;;26.73;8.52;;;;;;;;;;5002537;28;20500;-71
2024/03/28 06:27:14;;;;;;;33.28;10.82;;;;;;;;;;5014713;28;20096;-70
2024/03/28 06:30:25;;;;;;;19.83;8.07;;;;;;;;;;5014968;28;20420;-71
2024/03/28 06:33:29;;;;;;;24.08;7.35;;;;;;;;;;5014339;28;20057;-71
2024/03/28 06:36:34;;;;;;;22.13;5.65;;;;;;;;;;5014319;28;20044;-71
2024/03/28 06:39:39;;;;;;;20.05;5.30;;;;;;;;;;5014482;28;20053;-70
2024/03/28 06:42:43;;;;;;;15.82;3.20;;;;;;;;;;5014110;28;20049;-69
2024/03/28 06:45:47;;;;;;;15.60;3.25;;;;;;;;;;5014610;28;20049;-70
2024/03/28 06:48:51;;;;;;;11.77;1.95;;;;;;;;;;5015080;28;20053;-70
2024/03/28 06:51:56;;;;;;;14.60;1.65;;;;;;;;;;5014221;28;20060;-70
2024/03/28 06:55:00;;;;;;;10.25;2.13;;;;;;;;;;5014105;28;20118;-70
2024/03/28 06:58:05;;;;;;;12.63;1.63;;;;;;;;;;5014261;28;20044;-70
2024/03/28 07:01:09;;;;;;;14.05;2.13;;;;;;;;;;5014133;28;20053;-70
2024/03/28 07:04:13;;;;;;;17.15;2.20;;;;;;;;;;5013739;28;20045;-71
2024/03/28 07:07:18;;;;;;;7.95;1.73;;;;;;;;;;5001484;28;20057;-71
2024/03/28 07:10:23;;;;;;;15.00;2.30;;;;;;;;;;5014044;28;20042;-70
2024/03/28 07:13:27;;;;;;;14.52;2.92;;;;;;;;;;5013595;28;20065;-72
2024/03/28 07:16:32;;;;;;;20.55;2.42;;;;;;;;;;5013635;28;20049;-71
2024/03/28 07:19:36;;;;;;;15.15;2.28;;;;;;;;;;5013812;28;20501;-71
2024/03/28 07:22:40;;;;;;;14.43;1.90;;;;;;;;;;5013575;28;20056;-73
2024/03/28 07:25:44;;;;;;;16.20;2.50;;;18.40;96.50;;;;;;5013574;28;20045;-72
2024/03/28 07:28:49;;;;;;;14.80;2.47;;;;;;;;;;5013610;28;20061;-71
2024/03/28 07:31:53;;;;;;;13.23;1.83;;;;;;;;;;5013424;28;20049;-70
2024/03/28 07:34:59;;;;;;;19.05;2.58;;;;;;;;;;5001023;28;20045;-73
2024/03/28 07:38:03;;;;;;;20.92;2.90;;;;;;;;;;5013416;28;20053;-73
2024/03/28 07:41:08;;;;;;;17.52;2.25;;;;;;;;;;5001078;28;20501;-70
2024/03/28 07:44:15;;;;;;;13.27;2.38;;;;;;;;;;5012885;28;20072;-71
2024/03/28 07:47:19;;;;;;;11.93;2.63;;;;;;;;;;5012883;28;20061;-70
2024/03/28 07:50:24;;;;;;;19.02;2.92;;;;;;;;;;5013411;28;20045;-69
2024/03/28 07:53:29;;;;;;;16.65;2.58;;;20.10;93.00;;;;;;5013120;28;20581;-71
2024/03/28 07:56:33;;;;;;;20.40;5.00;;;;;;;;;;5012608;28;20118;-69
2024/03/28 07:59:37;;;;;;;19.00;2.85;;;;;;;;;;5012855;28;20053;-69
2024/03/28 08:02:43;;;;;;;15.23;2.63;;;;;;;;;;5012864;28;20497;-71
2024/03/28 08:05:49;;;;;;;17.52;3.58;;;;;;;;;;5011914;28;20053;-72
2024/03/28 08:08:54;;;;;;;23.38;7.45;;;;;;;;;;5012696;28;20057;-71
2024/03/28 08:11:59;;;;;;;20.60;2.75;;;;;;;;;;5012846;28;20049;-74
2024/03/28 08:15:05;;;;;;;15.07;2.72;;;;;;;;;;5012322;28;20037;-73
2024/03/28 08:18:09;;;;;;;18.67;3.42;;;;;;;;;;5000267;28;20057;-72
2024/03/28 08:21:15;;;;;;;14.38;2.40;;;;;;;;;;5012688;28;20045;-76
2024/03/28 08:24:22;;;;;;;20.63;2.67;;;;;;;;;;5011877;28;20052;-69
2024/03/28 08:27:27;;;;;;;16.85;2.53;;;;;;;;;;5000550;28;20086;-68
2024/03/28 08:30:32;;;;;;;20.13;3.38;;;;;;;;;;5012363;28;20049;-69
2024/03/28 08:33:37;;;;;;;11.70;1.90;;;;;;;;;;5012062;28;20072;-69
2024/03/28 08:36:41;;;;;;;14.55;2.40;;;;;;;;;;4999924;28;20045;-75
2024/03/28 08:39:46;;;;;;;15.25;3.25;;;;;;;;;;5011500;28;20049;-74
2024/03/28 08:42:50;;;;;;;11.90;2.15;;;;;;;;;;4999700;28;20056;-74
2024/03/28 08:45:55;;;;;;;12.82;1.88;;;;;;;;;;5012258;28;20049;-74
2024/03/28 08:48:59;;;;;;;18.10;3.58;;;;;;;;;;5012149;28;20049;-75
2024/03/28 08:52:04;;;;;;;22.30;4.80;;;;;;;;;;5011903;28;20044;-74
2024/03/28 08:55:10;;;;;;;15.02;2.72;;;;;;;;;;5011996;28;20045;-74
2024/03/28 08:58:16;;;;;;;22.58;2.88;;;;;;;;;;5012056;28;20071;-73
2024/03/28 09:01:20;;;;;;;17.55;2.97;;;;;;;;;;5011543;28;20060;-73
2024/03/28 09:04:26;;;;;;;20.77;3.88;;;;;;;;;;5011330;28;20049;-73
2024/03/28 09:07:30;;;;;;;26.65;3.88;;;;;;;;;;5011626;28;20053;-73
2024/03/28 09:10:39;;;;;;;19.17;3.67;;;;;;;;;;4999509;28;20049;-74
2024/03/28 09:13:44;;;;;;;16.45;3.53;;;;;;;;;;5000026;28;20053;-75
2024/03/28 09:16:49;;;;;;;25.08;3.83;;;;;;;;;;5011068;28;20548;-74
2024/03/28 09:19:52;;;;;;;29.13;4.10;;;;;;;;;;5011278;28;20501;-74
2024/03/28 09:22:57;;;;;;;25.15;4.32;;;;;;;;;;5011182;28;20050;-74
2024/03/28 09:26:02;;;;;;;23.90;4.32;;;;;;;;;;5011229;28;20045;-73
2024/03/28 09:29:06;;;;;;;31.08;4.35;;;;;;;;;;5011455;28;20116;-73
2024/03/28 09:32:11;;;;;;;26.40;3.90;;;;;;;;;;5012172;28;20053;-74
2024/03/28 09:35:15;;;;;;;28.45;4.65;;;;;;;;;;5010607;28;20048;-74
2024/03/28 09:38:19;;;;;;;26.85;4.75;;;;;;;;;;4999308;28;20532;-74
2024/03/28 09:41:28;;;;;;;33.58;5.10;;;;;;;;;;5011219;28;20477;-73
2024/03/28 09:44:33;;;;;;;28.05;4.32;;;;;;;;;;4998964;28;20053;-74
2024/03/28 09:47:38;;;;;;;35.55;5.25;;;20.80;93.10;;;;;;5010877;28;20060;-74
2024/03/28 09:50:43;;;;;;;38.03;5.05;;;;;;;;;;4998695;28;20504;-74
2024/03/28 09:53:49;;;;;;;28.17;6.55;;;21.40;93.20;;;;;;5010975;28;20053;-76
2024/03/28 09:56:54;;;;;;;29.42;6.68;;;;;;;;;;4999173;28;20061;-74
2024/03/28 09:59:59;;;;;;;37.05;6.95;;;;;;;;;;5011249;28;20507;-75
2024/03/28 10:03:12;;;;;;;41.00;6.25;;;20.40;93.00;;;;;;5011073;28;20053;-74
2024/03/28 10:06:16;;;;;;;32.15;6.25;;;;;;;;;;5011127;28;20045;-74
2024/03/28 10:09:21;;;;;;;43.03;6.28;;;;;;;;;;4998610;28;20045;-73
2024/03/28 10:12:26;;;;;;;47.78;7.00;;;;;;;;;;5010991;28;20125;-75
2024/03/28 10:15:31;;;;;;;36.03;5.30;;;;;;;;;;5011022;28;20045;-74
2024/03/28 10:18:36;;;;;;;35.42;5.75;;;;;;;;;;5010604;28;20457;-73
2024/03/28 10:21:41;;;;;;;39.45;6.70;;;;;;;;;;5010462;28;20033;-73
2024/03/28 10:24:48;;;;;;;31.85;6.00;;;21.20;93.80;;;;;;5010540;28;20041;-73
2024/03/28 10:28:02;;;;;;;39.25;6.50;;;21.30;94.30;;;;;;5010468;28;20342;-74
2024/03/28 10:31:06;;;;;;;26.70;5.93;;;21.50;93.40;;;;;;5010497;28;20092;-74
2024/03/28 10:34:15;;;;;;;36.25;6.47;;;21.40;93.60;;;;;;5010821;28;20600;-73
2024/03/28 10:37:19;;;;;;;35.15;6.28;;;;;;;;;;5010319;28;20037;-75
2024/03/28 10:40:24;;;;;;;38.15;6.82;;;;;;;;;;5009731;28;20045;-72
2024/03/28 10:43:28;;;;;;;52.70;7.50;;;21.20;94.00;;;;;;5010585;28;20552;-71
2024/03/28 10:46:32;;;;;;;42.60;6.05;;;20.70;94.50;;;;;;4988191;28;20053;-71
2024/03/28 10:49:43;;;;;;;40.88;7.63;;;20.60;94.80;;;;;;5002033;28;20057;-72
2024/03/28 10:52:51;;;;;;;47.00;6.75;;;20.30;95.20;;;;;;5013783;28;20389;-72
2024/03/28 10:56:02;;;;;;;43.85;7.95;;;20.00;95.50;;;;;;5001806;28;20053;-72
2024/03/28 10:59:08;;;;;;;50.20;8.23;;;;;;;;;;5014188;28;20065;-73
2024/03/28 11:02:17;;;;;;;50.13;6.50;;;18.30;95.50;;;;;;5001794;28;20276;-68
2024/03/28 11:05:23;;;;;;;35.08;6.45;;;;;;;;;;5013305;28;20053;-72
2024/03/28 11:08:28;;;;;;;48.30;7.45;;;20.60;96.30;;;;;;5011828;28;20060;-73
2024/03/28 11:11:36;;;;;;;48.22;8.15;;;;;;;;;;5000322;28;20049;-72
2024/03/28 11:14:40;;;;;;;42.53;6.05;;;;;;;;;;5012225;28;20057;-72
2024/03/28 11:17:45;;;;;;;48.70;7.53;;;;;;;;;;5011741;28;20045;-72
2024/03/28 11:20:51;;;;;;;51.15;8.77;;;;;;;;;;5012880;28;20389;-73
2024/03/28 11:23:55;;;;;;;43.03;7.35;;;;;;;;;;5013306;28;20052;-72
2024/03/28 11:27:01;;;;;;;43.05;7.15;;;;;;;;;;5013464;28;20056;-73
2024/03/28 11:30:13;;;;;;;58.55;7.60;;;19.70;96.70;;;;;;5012608;28;20049;-73
2024/03/28 11:33:34;;;;;;;51.15;7.45;;;20.00;96.70;;;;;;5001193;28;20053;-73
2024/03/28 11:36:38;;;;;;;43.20;6.25;;;;;;;;;;5013575;28;20057;-72
2024/03/28 11:39:42;;;;;;;44.15;6.80;;;;;;;;;;5001598;28;20048;-72
2024/03/28 11:42:47;;;;;;;42.55;7.55;;;;;;;;;;5013126;28;20065;-72
2024/03/28 11:45:57;;;;;;;35.50;5.70;;;19.90;95.90;;;;;;5012907;28;20053;-71
2024/03/28 11:49:04;;;;;;;37.25;5.95;;;;;;;;;;5012775;28;20061;-71
2024/03/28 11:52:08;;;;;;;36.30;6.55;;;;;;;;;;5013120;28;20679;-69
2024/03/28 11:55:13;;;;;;;53.22;6.80;;;20.30;96.30;;;;;;5013214;28;20389;-72
2024/03/28 11:58:22;;;;;;;39.40;6.72;;;17.70;95.50;;;;;;4999989;28;20572;-71
2024/03/28 12:01:26;;;;;;;48.65;5.72;;;;;;;;;;5012916;28;20052;-72
2024/03/28 12:04:30;;;;;;;51.55;7.35;;;;;;;;;;5012963;28;20048;-72
2024/03/28 12:07:35;;;;;;;42.05;6.72;;;;;;;;;;5012178;28;20492;-73
2024/03/28 12:10:39;;;;;;;52.28;7.72;;;;;;;;;;5011948;28;20053;-71
2024/03/28 12:13:48;;;;;;;37.50;5.68;;;19.70;95.90;;;;;;5012866;28;20057;-71
2024/03/28 12:16:53;;;;;;;44.88;7.22;;;;;;;;;;5012739;28;20049;-71
2024/03/28 12:20:06;;;;;;;39.03;5.40;;;19.60;95.60;;;;;;5012380;28;20053;-71
2024/03/28 12:23:12;;;;;;;39.85;6.25;;;20.00;95.80;;;;;;5012605;28;20048;-72
2024/03/28 12:26:20;;;;;;;38.90;5.88;;;19.80;95.60;;;;;;5012575;28;20056;-71
2024/03/28 12:29:25;;;;;;;37.05;6.30;;;;;;;;;;5012279;28;20061;-72
2024/03/28 12:32:29;;;;;;;44.38;7.25;;;;;;;;;;5000348;28;20060;-71
2024/03/28 12:35:34;;;;;;;41.58;6.28;;;19.50;96.10;;;;;;5000034;28;20505;-72
2024/03/28 12:38:39;;;;;;;50.30;7.13;;;;;;;;;;5012291;28;20052;-72
2024/03/28 12:41:53;;;;;;;39.33;6.18;;;19.50;95.30;;;;;;5000259;28;20053;-72
2024/03/28 12:44:58;;;;;;;40.42;6.03;;;;;;;;;;5000083;28;20061;-71
2024/03/28 12:48:04;;;;;;;27.50;4.60;;;;;;;;;;5012299;28;20053;-72
2024/03/28 12:51:08;;;;;;;30.33;5.38;;;;;;;;;;5011681;28;20056;-71
2024/03/28 12:54:13;;;;;;;38.53;5.70;;;;;;;;;;5011837;28;20064;-72
2024/03/28 12:57:17;;;;;;;37.97;5.53;;;;;;;;;;5000041;28;20433;-71
2024/03/28 13:00:21;;;;;;;34.13;5.13;;;;;;;;;;5012068;28;20048;-70
2024/03/28 13:03:26;;;;;;;40.78;6.70;;;;;;;;;;5011693;28;20049;-70
2024/03/28 13:06:30;;;;;;;35.53;5.32;;;;;;;;;;4999853;28;20402;-71
2024/03/28 13:09:34;;;;;;;37.90;5.65;;;;;;;;;;5011665;28;20493;-70
2024/03/28 13:12:39;;;;;;;38.10;5.28;;;;;;;;;;5011824;28;20386;-72
2024/03/28 13:15:44;;;;;;;36.67;5.82;;;;;;;;;;5011810;28;20044;-70
2024/03/28 13:18:48;;;;;;;35.75;5.07;;;;;;;;;;4999356;28;20045;-72
2024/03/28 13:21:53;;;;;;;30.27;5.25;;;;;;;;;;5011023;28;20402;-72
2024/03/28 13:24:57;;;;;;;32.92;5.47;;;;;;;;;;5011484;28;20041;-72
2024/03/28 13:28:01;;;;;;;40.25;6.68;;;;;;;;;;5011505;28;20502;-73
2024/03/28 13:31:06;;;;;;;45.53;6.65;;;;;;;;;;5011285;28;20048;-72
2024/03/28 13:34:13;;;;;;;38.50;5.22;;;;;;;;;;5011474;28;20056;-72
2024/03/28 13:37:17;;;;;;;25.17;4.32;;;;;;;;;;5011404;28;20399;-72
2024/03/28 13:40:21;;;;;;;31.15;5.25;;;;;;;;;;5011191;28;20057;-72
2024/03/28 13:43:26;;;;;;;34.35;4.93;;;;;;;;;;5010740;28;20061;-72
2024/03/28 13:46:33;;;;;;;26.55;4.65;;;;;;;;;;5011294;28;20053;-73
2024/03/28 13:49:37;;;;;;;27.35;4.75;;;;;;;;;;5011002;28;20061;-71
2024/03/28 13:52:41;;;;;;;32.33;4.93;;;;;;;;;;5010290;28;20660;-72
2024/03/28 13:55:46;;;;;;;27.65;4.90;;;;;;;;;;5011221;28;20125;-76
2024/03/28 13:58:50;;;;;;;36.53;5.05;;;;;;;;;;4999197;28;20045;-73
2024/03/28 14:01:54;;;;;;;33.50;5.53;;;;;;;;;;5011218;28;20052;-73
2024/03/28 14:05:01;;;;;;;32.85;6.88;;;18.60;95.00;;;;;;5010899;28;20049;-75
2024/03/28 14:08:06;;;;;;;32.00;5.30;;;;;;;;;;4987665;28;20053;-72
2024/03/28 14:11:10;;;;;;;35.38;5.40;;;;;;;;;;5010638;28;20045;-73
2024/03/28 14:14:15;;;;;;;39.97;5.60;;;;;;;;;;5010879;28;20525;-73
2024/03/28 14:17:19;;;;;;;32.67;4.90;;;;;;;;;;4998947;28;20045;-75
2024/03/28 14:20:23;;;;;;;27.15;4.88;;;;;;;;;;4998927;28;20060;-74
2024/03/28 14:23:28;;;;;;;32.33;5.63;;;;;;;;;;5002881;28;20405;-72
2024/03/28 14:26:32;;;;;;;38.03;5.32;;;;;;;;;;5014719;28;20421;-73
2024/03/28 14:29:36;;;;;;;28.77;4.97;;;;;;;;;;5014215;28;20129;-74
2024/03/28 14:32:41;;;;;;;26.35;4.65;;;;;;;;;;5002707;28;20045;-85
2024/03/28 14:35:45;;;;;;;26.38;4.68;;;;;;;;;;5003418;28;20053;-74
2024/03/28 14:38:49;;;;;;;24.67;4.70;;;;;;;;;;5014437;28;20045;-72
2024/03/28 14:41:54;;;;;;;25.08;4.43;;;16.90;94.20;;;;;;5014200;28;20074;-73
2024/03/28 14:44:59;;;;;;;25.48;5.00;;;;;;;;;;5014512;28;20053;-73
2024/03/28 14:48:05;;;;;;;28.58;4.93;;;21.00;94.90;;;;;;5014261;28;20056;-73
2024/03/28 14:51:09;;;;;;;26.85;4.40;;;19.70;94.50;;;;;;5014100;28;20053;-73
2024/03/28 14:54:14;;;;;;;35.47;5.88;;;;;;;;;;5013392;28;20044;-77
2024/03/28 14:57:18;;;;;;;31.38;4.97;;;;;;;;;;5013429;28;20049;-70
2024/03/28 15:00:23;;;;;;;25.08;4.13;;;;;;;;;;5012022;28;20052;-71
2024/03/28 15:03:27;;;;;;;28.77;4.53;;;;;;;;;;5013647;28;20048;-70
2024/03/28 15:06:31;;;;;;;36.45;5.10;;;;;;;;;;5001700;28;20049;-71
2024/03/28 15:09:36;;;;;;;27.00;4.95;;;;;;;;;;5013650;28;20064;-70
2024/03/28 15:12:40;;;;;;;32.88;7.38;;;;;;;;;;5013373;28;20053;-70
2024/03/28 15:15:44;;;;;;;37.03;4.85;;;;;;;;;;5013870;28;20061;-70
2024/03/28 15:18:49;;;;;;;39.38;5.32;;;;;;;;;;5013937;28;20056;-70
2024/03/28 15:21:53;;;;;;;43.75;5.90;;;;;;;;;;5013691;28;20378;-70
2024/03/28 15:24:57;;;;;;;34.33;5.10;;;;;;;;;;5001501;28;20505;-70
2024/03/28 15:28:02;;;;;;;40.13;6.13;;;;;;;;;;5013363;28;20049;-70
2024/03/28 15:31:06;;;;;;;36.50;5.28;;;;;;;;;;5013631;28;20446;-70
2024/03/28 15:34:11;;;;;;;47.05;5.63;;;;;;;;;;5012242;28;20057;-70
2024/03/28 15:37:15;;;;;;;46.03;6.18;;;;;;;;;;5013604;28;20058;-70
2024/03/28 15:40:23;;;;;;;46.55;6.68;;;19.30;95.00;;;;;;5013541;28;20041;-69
2024/03/28 15:43:27;;;;;;;38.83;5.85;;;;;;;;;;5013078;28;20064;-69
2024/03/28 15:46:31;;;;;;;49.78;6.82;;;;;;;;;;5013034;28;20374;-70
2024/03/28 15:49:36;;;;;;;46.05;6.47;;;;;;;;;;5012980;28;20061;-70
2024/03/28 15:52:41;;;;;;;54.65;5.90;;;;;;;;;;5013206;28;20045;-70
2024/03/28 15:55:45;;;;;;;56.08;6.70;;;;;;;;;;5012817;28;20041;-72
2024/03/28 15:58:52;;;;;;;41.75;6.68;;;18.80;95.00;;;;;;5013024;28;20053;-70
2024/03/28 16:01:56;;;;;;;41.80;6.22;;;;;;;;;;5000763;28;20041;-70
2024/03/28 16:05:00;;;;;;;49.97;7.35;;;;;;;;;;5012794;28;20070;-71
2024/03/28 16:08:06;;;;;;;55.70;6.72;;;18.30;94.90;;;;;;5012337;28;20053;-72
2024/03/28 16:11:11;;;;;;;44.33;5.80;;;20.00;95.40;;;;;;5000704;28;20052;-72
2024/03/28 16:14:16;;;;;;;52.22;6.68;;;;;;;;;;5012074;28;20068;-72
2024/03/28 16:17:20;;;;;;;51.05;7.45;;;;;;;;;;5000405;28;20053;-71
2024/03/28 16:20:24;;;;;;;47.35;5.70;;;;;;;;;;5000282;28;20049;-73
2024/03/28 16:23:29;;;;;;;62.00;7.32;;;;;;;;;;5012470;28;20056;-72
2024/03/28 16:26:33;;;;;;;68.80;7.05;;;;;;;;;;5013120;28;20045;-72
2024/03/28 16:29:38;;;;;;;58.92;6.30;;;;;;;;;;5013358;28;20064;-72
2024/03/28 16:32:42;;;;;;;57.08;6.30;;;18.70;95.00;;;;;;5012995;28;20041;-71
2024/03/28 16:35:53;;;;;;;65.35;8.32;;;18.70;94.90;;;;;;5012212;28;20200;-71
2024/03/28 16:39:00;;;;;;;47.00;6.63;;;;;;;;;;5012542;28;20161;-69
2024/03/28 16:42:04;;;;;;;50.03;6.13;;;;;;;;;;5011860;28;20049;-69
2024/03/28 16:45:09;;;;;;;50.25;6.97;;;;;;;;;;5011346;28;20500;-70
2024/03/28 16:48:13;;;;;;;59.60;6.60;;;;;;;;;;5011953;28;20048;-71
2024/03/28 16:51:21;;;;;;;51.45;7.15;;;18.50;95.10;;;;;;5011840;28;20065;-71
2024/03/28 16:54:26;;;;;;;57.30;6.18;;;;;;;;;;5011842;28;20045;-72
2024/03/28 16:57:30;;;;;;;48.17;6.97;;;;;;;;;;5011970;28;20045;-71
2024/03/28 17:00:36;;;;;;;60.10;8.30;;;17.80;95.00;;;;;;5011830;28;20049;-73
2024/03/28 17:03:40;;;;;;;57.65;7.65;;;;;;;;;;5011751;28;20398;-73
2024/03/28 17:06:44;;;;;;;52.83;7.53;;;;;;;;;;5011824;28;20076;-73
2024/03/28 17:09:49;;;;;;;66.97;7.70;;;;;;;;;;5011342;28;20061;-72
2024/03/28 17:12:53;;;;;;;64.50;8.27;;;;;;;;;;5010472;28;20109;-73
2024/03/28 17:16:01;;;;;;;43.30;6.78;;;20.70;96.30;;;;;;5011173;28;20493;-73
2024/03/28 17:19:05;;;;;;;76.43;8.23;;;;;;;;;;5011270;28;20061;-72
2024/03/28 17:22:09;;;;;;;48.92;7.00;;;;;;;;;;4999015;28;20049;-72
2024/03/28 17:25:14;;;;;;;58.13;8.50;;;;;;;;;;4998608;28;20049;-72
2024/03/28 17:28:18;;;;;;;74.35;8.45;;;;;;;;;;5011098;28;20056;-70
2024/03/28 17:31:22;;;;;;;55.50;7.60;;;;;;;;;;5011317;28;20045;-72
2024/03/28 17:34:27;;;;;;;60.35;7.22;;;;;;;;;;4999133;28;20055;-73
2024/03/28 17:37:31;;;;;;;65.18;6.90;;;;;;;;;;4987071;28;20512;-72
2024/03/28 17:40:35;;;;;;;50.25;7.25;;;;;;;;;;4998663;28;20680;-73